createdAt,value
2023-02-06T00:01:46.310Z,101411.72
2023-02-06T00:04:14.917Z,101406.53
2023-02-06T00:06:43.686Z,101401.34
2023-02-06T00:09:12.068Z,101401.38
2023-02-06T00:11:39.989Z,101404.78
2023-02-06T00:14:08.298Z,101405.63
2023-02-06T00:16:37.230Z,101371.16
2023-02-06T00:19:05.593Z,101357.31
2023-02-06T00:21:34.554Z,101405.69
2023-02-06T00:24:03.834Z,101403.06
2023-02-06T00:26:33.402Z,101394.44
2023-02-06T00:29:02.162Z,101409.16
2023-02-06T00:31:31.037Z,101416.97
2023-02-06T00:33:59.785Z,101366.94
2023-02-06T00:36:28.411Z,101397.09
2023-02-06T00:38:57.219Z,101411.75
2023-02-06T00:41:25.190Z,101362.53
2023-02-06T00:43:53.165Z,101367.75
2023-02-06T00:46:21.912Z,101417.75
2023-02-06T00:48:50.351Z,101399.69
2023-02-06T00:51:18.390Z,101406.53
2023-02-06T00:53:46.520Z,101359.03
2023-02-06T00:56:14.449Z,101403.06
2023-02-06T00:58:42.256Z,101403.16
2023-02-06T01:01:13.063Z,101353.91
2023-02-06T01:03:41.027Z,101390.13
2023-02-06T01:06:10.717Z,101340.94
2023-02-06T01:08:39.165Z,101403.97
2023-02-06T01:11:13.474Z,101360.84
2023-02-06T01:13:43.791Z,101398.81
2023-02-06T01:16:16.553Z,101388.38
2023-02-06T01:18:46.322Z,101394.38
2023-02-06T01:21:22.776Z,101342.59
2023-02-06T01:23:55.380Z,101387.50
2023-02-06T01:26:29.248Z,101352.09
2023-02-06T01:28:57.844Z,101381.47
2023-02-06T01:31:29.195Z,101326.22
2023-02-06T01:34:00.444Z,101399.56
2023-02-06T01:36:29.654Z,101379.72
2023-02-06T01:38:57.972Z,101398.75
2023-02-06T01:41:26.254Z,101391.81
2023-02-06T01:44:24.707Z,101385.81
2023-02-06T01:46:57.750Z,101395.31
2023-02-06T01:49:40.023Z,101390.13
2023-02-06T01:52:21.999Z,101396.13
2023-02-06T01:55:01.484Z,101380.66
2023-02-06T01:57:30.707Z,101325.38
2023-02-06T02:00:06.287Z,101355.56
2023-02-06T02:02:45.186Z,101369.38
2023-02-06T02:05:13.983Z,101328.81
2023-02-06T02:08:03.087Z,101383.97
2023-02-06T02:10:32.706Z,101346.88
2023-02-06T02:13:00.673Z,101367.56
2023-02-06T02:16:09.707Z,101349.53
2023-02-06T02:19:06.072Z,101378.84
2023-02-06T02:21:58.957Z,101371.09
2023-02-06T02:25:15.247Z,101368.47
2023-02-06T02:28:34.544Z,101312.34
2023-02-06T02:31:48.294Z,101321.78
2023-02-06T02:34:40.986Z,101366.69
2023-02-06T02:37:52.628Z,101365.78
2023-02-06T02:40:51.191Z,101372.69
2023-02-06T02:43:51.007Z,101313.22
2023-02-06T02:46:43.249Z,101350.22
2023-02-06T02:49:22.030Z,101359.72
2023-02-06T02:51:51.772Z,101370.97
2023-02-06T02:54:21.171Z,101366.69
2023-02-06T02:56:49.431Z,101363.19
2023-02-06T02:59:25.806Z,101294.19
2023-02-06T03:02:08.138Z,101352.81
2023-02-06T03:04:53.650Z,101351.97
2023-02-06T03:07:42.994Z,101301.91
2023-02-06T03:10:37.311Z,101352.84
2023-02-06T03:13:29.490Z,101358.94
2023-02-06T03:16:55.150Z,101364.16
2023-02-06T03:19:32.988Z,101357.22
2023-02-06T03:22:03.620Z,101356.41
2023-02-06T03:24:37.461Z,101359.91
2023-02-06T03:27:12.104Z,101347.78
2023-02-06T03:29:43.178Z,101352.13
2023-02-06T03:32:24.277Z,101355.59
2023-02-06T03:35:18.971Z,101346.13
2023-02-06T03:37:49.277Z,101359.09
2023-02-06T03:40:18.520Z,101358.28
2023-02-06T03:42:56.711Z,101354.88
2023-02-06T03:45:41.567Z,101309.22
2023-02-06T03:48:22.561Z,101370.53
2023-02-06T03:50:54.408Z,101374.88
2023-02-06T03:53:24.212Z,101338.66
2023-02-06T03:55:59.949Z,101387.03
2023-02-06T03:58:28.567Z,101377.47
2023-02-06T04:00:57.315Z,101264.53
2023-02-06T04:03:27.081Z,101390.44
2023-02-06T04:05:57.072Z,101378.38
2023-02-06T04:08:25.644Z,101380.13
2023-02-06T04:10:53.552Z,101346.50
2023-02-06T04:13:21.790Z,101382.75
2023-02-06T04:15:50.153Z,101370.69
2023-02-06T04:18:18.148Z,101328.41
2023-02-06T04:20:46.298Z,101387.97
2023-02-06T04:23:14.139Z,101382.81
2023-02-06T04:25:42.001Z,101374.16
2023-02-06T04:28:10.243Z,101378.53
2023-02-06T04:30:38.102Z,101380.31
2023-02-06T04:33:06.439Z,101384.66
2023-02-06T04:35:35.141Z,101351.03
2023-02-06T04:38:03.534Z,101377.78
2023-02-06T04:40:31.449Z,101390.78
2023-02-06T04:42:59.984Z,101391.69
2023-02-06T04:45:27.906Z,101354.63
2023-02-06T04:47:56.342Z,101344.25
2023-02-06T04:50:31.633Z,101396.06
2023-02-06T04:52:59.887Z,101389.16
2023-02-06T04:55:28.003Z,101396.09
2023-02-06T04:57:56.003Z,101401.25
2023-02-06T05:00:24.008Z,101383.16
2023-02-06T05:02:52.224Z,101398.72
2023-02-06T05:05:20.356Z,101386.66
2023-02-06T05:07:48.286Z,101403.91
2023-02-06T05:10:16.547Z,101315.03
2023-02-06T05:12:44.739Z,101391.00
2023-02-06T05:15:12.632Z,101403.13
2023-02-06T05:17:40.757Z,101401.34
2023-02-06T05:20:09.961Z,101414.34
2023-02-06T05:22:38.062Z,101416.94
2023-02-06T05:25:06.540Z,101420.44
2023-02-06T05:27:34.854Z,101425.63
2023-02-06T05:30:03.614Z,101421.28
2023-02-06T05:32:32.974Z,101423.03
2023-02-06T05:35:00.889Z,101421.31
2023-02-06T05:37:28.790Z,101423.91
2023-02-06T05:39:59.116Z,101420.47
2023-02-06T05:42:27.953Z,101426.53
2023-02-06T05:44:55.924Z,101423.06
2023-02-06T05:47:23.982Z,101428.31
2023-02-06T05:49:52.875Z,101427.41
2023-02-06T05:52:20.776Z,101392.84
2023-02-06T05:54:49.922Z,101428.25
2023-02-06T05:57:17.895Z,101421.31
2023-02-06T05:59:45.762Z,101383.38
2023-02-06T06:02:13.761Z,101430.88
2023-02-06T06:04:41.944Z,101431.75
2023-02-06T06:07:10.212Z,101388.56
2023-02-06T06:09:38.595Z,101445.56
2023-02-06T06:12:07.034Z,101436.03
2023-02-06T06:14:35.385Z,101445.50
2023-02-06T06:17:03.630Z,101441.19
2023-02-06T06:19:31.933Z,101440.31
2023-02-06T06:21:59.976Z,101438.66
2023-02-06T06:24:28.361Z,101438.63
2023-02-06T06:26:56.647Z,101385.13
2023-02-06T06:29:25.114Z,101425.78
2023-02-06T06:31:55.319Z,101384.34
2023-02-06T06:34:23.628Z,101437.88
2023-02-06T06:36:52.313Z,101444.81
2023-02-06T06:39:20.676Z,101445.66
2023-02-06T06:41:48.742Z,101421.50
2023-02-06T06:44:17.438Z,101452.59
2023-02-06T06:46:45.663Z,101404.16
2023-02-06T06:49:13.718Z,101462.84
2023-02-06T06:51:42.102Z,101433.38
2023-02-06T06:54:10.132Z,101463.47
2023-02-06T06:56:38.287Z,101470.38
2023-02-06T06:59:06.563Z,101474.53
2023-02-06T07:01:34.800Z,101431.34
2023-02-06T07:04:02.881Z,101464.16
2023-02-06T07:06:31.186Z,101455.44
2023-02-06T07:08:59.182Z,101462.38
2023-02-06T07:11:27.460Z,101458.00
2023-02-06T07:13:55.414Z,101451.19
2023-02-06T07:16:24.727Z,101450.44
2023-02-06T07:18:52.982Z,101299.53
2023-02-06T07:21:21.092Z,101394.31
2023-02-06T07:23:49.134Z,101420.81
2023-02-06T07:26:17.163Z,101410.34
2023-02-06T07:28:45.179Z,101460.31
2023-02-06T07:31:13.281Z,101418.91
2023-02-06T07:33:42.010Z,101469.69
2023-02-06T07:36:15.946Z,101466.97
2023-02-06T07:38:44.235Z,101467.56
2023-02-06T07:41:12.866Z,101447.53
2023-02-06T07:43:41.831Z,101465.50
2023-02-06T07:46:10.177Z,101410.34
2023-02-06T07:48:38.690Z,101410.28
2023-02-06T07:51:10.378Z,101409.97
2023-02-06T07:53:38.688Z,101432.31
2023-02-06T07:56:16.632Z,101450.50
2023-02-06T07:58:49.072Z,101399.25
2023-02-06T08:01:17.321Z,101447.53
2023-02-06T08:03:45.539Z,101392.16
2023-02-06T08:06:16.632Z,101395.75
2023-02-06T08:08:45.253Z,101446.59
2023-02-06T08:11:19.571Z,101419.88
2023-02-06T08:13:48.462Z,101463.50
2023-02-06T08:16:22.592Z,101482.03
2023-02-06T08:18:51.025Z,101472.97
2023-02-06T08:21:25.185Z,101472.38
2023-02-06T08:23:58.187Z,101416.72
2023-02-06T08:26:29.551Z,101490.44
2023-02-06T08:29:01.292Z,101473.38
2023-02-06T08:31:32.418Z,101468.94
2023-02-06T08:34:01.083Z,101473.75
2023-02-06T08:36:32.077Z,101439.81
2023-02-06T08:39:01.795Z,101481.47
2023-02-06T08:41:39.247Z,101485.22
2023-02-06T08:44:14.768Z,101455.94
2023-02-06T08:46:45.106Z,101491.34
2023-02-06T08:49:19.448Z,101505.97
2023-02-06T08:51:50.433Z,101510.22
2023-02-06T08:54:23.305Z,101510.56
2023-02-06T08:56:53.020Z,101449.38
2023-02-06T08:59:21.220Z,101463.03
2023-02-06T09:01:49.679Z,101467.84
2023-02-06T09:04:19.245Z,101466.13
2023-02-06T09:06:49.267Z,101509.44
2023-02-06T09:09:18.626Z,101448.41
2023-02-06T09:11:47.843Z,101477.31
2023-02-06T09:14:18.159Z,101514.69
2023-02-06T09:16:46.720Z,101507.50
2023-02-06T09:19:15.069Z,101494.63
2023-02-06T09:21:43.284Z,101507.59
2023-02-06T09:24:12.202Z,101508.41
2023-02-06T09:26:58.519Z,101449.66
2023-02-06T09:29:32.333Z,101482.00
2023-02-06T09:32:00.865Z,101520.84
2023-02-06T09:34:29.348Z,101471.56
2023-02-06T09:36:58.431Z,101502.03
2023-02-06T09:39:26.681Z,101496.25
2023-02-06T09:42:29.673Z,101492.59
2023-02-06T09:45:12.081Z,101484.22
2023-02-06T09:47:47.586Z,101464.13
2023-02-06T09:50:51.271Z,101480.44
2023-02-06T09:53:42.697Z,101476.00
2023-02-06T09:56:39.938Z,101471.13
2023-02-06T09:59:29.899Z,101472.28
2023-02-06T10:02:48.428Z,101466.53
2023-02-06T10:06:00.818Z,101472.59
2023-02-06T10:09:19.040Z,101415.06
2023-02-06T10:11:57.091Z,101464.72
2023-02-06T10:14:53.100Z,101442.19
2023-02-06T10:17:34.392Z,101471.59
2023-02-06T10:20:39.247Z,101444.56
2023-02-06T10:23:23.297Z,101443.81
2023-02-06T10:26:19.727Z,101436.78
2023-02-06T10:28:56.691Z,101433.84
2023-02-06T10:31:24.913Z,101415.53
2023-02-06T10:34:19.988Z,101398.94
2023-02-06T10:37:19.390Z,101364.13
2023-02-06T10:39:50.537Z,101387.88
2023-02-06T10:42:56.635Z,101395.94
2023-02-06T10:45:51.779Z,101387.44
2023-02-06T10:48:46.462Z,101362.63
2023-02-06T10:51:43.999Z,101340.59
2023-02-06T10:54:23.956Z,101396.03
2023-02-06T10:56:54.935Z,101422.03
2023-02-06T10:59:34.602Z,101410.03
2023-02-06T11:03:07.087Z,101398.09
2023-02-06T11:05:37.226Z,101406.91
2023-02-06T11:08:32.224Z,101373.47
2023-02-06T11:11:29.762Z,101398.41
2023-02-06T11:14:24.940Z,101373.84
2023-02-06T11:16:54.318Z,101383.97
2023-02-06T11:19:48.854Z,101387.91
2023-02-06T11:22:28.982Z,101396.06
2023-02-06T11:25:03.735Z,101379.63
2023-02-06T11:27:34.889Z,101389.66
2023-02-06T11:30:22.772Z,101299.13
2023-02-06T11:33:04.636Z,101374.72
2023-02-06T11:35:51.591Z,101333.19
2023-02-06T11:38:24.396Z,101370.31
2023-02-06T11:41:18.987Z,101332.84
2023-02-06T11:43:51.935Z,101352.41
2023-02-06T11:46:32.711Z,101353.72
2023-02-06T11:49:25.025Z,101327.53
2023-02-06T11:52:01.354Z,101376.25
2023-02-06T11:54:35.745Z,101361.78
2023-02-06T11:57:08.270Z,101371.63
2023-02-06T11:59:49.361Z,101310.75
2023-02-06T12:02:35.548Z,101312.94
2023-02-06T12:05:17.169Z,101345.72
2023-02-06T12:07:52.376Z,101338.91
2023-02-06T12:10:23.756Z,101366.53
2023-02-06T12:13:26.680Z,101371.72
2023-02-06T12:16:00.986Z,101269.25
2023-02-06T12:18:42.608Z,101377.38
2023-02-06T12:21:36.979Z,101314.38
2023-02-06T12:24:31.697Z,101348.88
2023-02-06T12:27:06.410Z,101326.56
2023-02-06T12:30:03.265Z,101377.16
2023-02-06T12:32:41.164Z,101356.22
2023-02-06T12:35:40.422Z,101310.91
2023-02-06T12:38:46.077Z,101372.38
2023-02-06T12:41:41.857Z,101364.75
2023-02-06T12:44:34.402Z,101346.97
2023-02-06T12:47:09.837Z,101349.69
2023-02-06T12:50:04.184Z,101358.81
2023-02-06T12:53:07.608Z,101356.16
2023-02-06T12:55:45.941Z,101305.00
2023-02-06T12:58:42.575Z,101352.91
2023-02-06T13:01:43.479Z,101353.91
2023-02-06T13:04:25.171Z,101351.91
2023-02-06T13:07:08.200Z,101348.03
2023-02-06T13:10:02.483Z,101341.22
2023-02-06T13:12:32.820Z,101326.81
2023-02-06T13:15:08.278Z,101348.13
2023-02-06T13:17:43.047Z,101345.66
2023-02-06T13:20:18.657Z,101350.03
2023-02-06T13:23:16.643Z,101337.88
2023-02-06T13:25:44.801Z,101343.69
2023-02-06T13:28:21.950Z,101332.72
2023-02-06T13:31:21.727Z,101320.97
2023-02-06T13:34:02.251Z,101348.22
2023-02-06T13:36:50.162Z,101319.13
2023-02-06T13:39:33.530Z,101339.78
2023-02-06T13:42:32.030Z,101261.22
2023-02-06T13:45:04.891Z,101252.03
2023-02-06T13:47:55.236Z,101327.53
2023-02-06T13:50:54.815Z,101300.91
2023-02-06T13:53:33.313Z,101302.16
2023-02-06T13:56:36.147Z,101340.72
2023-02-06T13:59:27.977Z,101306.84
2023-02-06T14:01:57.103Z,101350.72
2023-02-06T14:04:30.814Z,101346.09
2023-02-06T14:07:08.269Z,101336.09
2023-02-06T14:09:45.227Z,101350.00
2023-02-06T14:12:53.324Z,101352.41
2023-02-06T14:16:04.853Z,101335.38
2023-02-06T14:19:03.202Z,101254.00
2023-02-06T14:21:59.210Z,101327.66
2023-02-06T14:24:43.359Z,101345.34
2023-02-06T14:27:32.910Z,101346.47
2023-02-06T14:30:35.976Z,101321.56
2023-02-06T14:33:42.243Z,101303.66
2023-02-06T14:36:47.604Z,101318.75
2023-02-06T14:39:55.964Z,101322.78
2023-02-06T14:42:32.986Z,101284.91
2023-02-06T14:45:05.810Z,101208.38
2023-02-06T14:47:43.282Z,101245.53
2023-02-06T14:50:28.109Z,101231.22
2023-02-06T14:53:11.440Z,101293.22
2023-02-06T14:55:43.283Z,101229.88
2023-02-06T14:58:31.928Z,101274.50
2023-02-06T15:01:23.927Z,101307.41
2023-02-06T15:03:53.003Z,101299.06
2023-02-06T15:06:38.565Z,101301.13
2023-02-06T15:09:08.559Z,101302.38
2023-02-06T15:11:39.999Z,101298.06
2023-02-06T15:14:35.811Z,101266.53
2023-02-06T15:17:04.013Z,101222.94
2023-02-06T15:19:35.853Z,101303.94
2023-02-06T15:22:13.534Z,101307.66
2023-02-06T15:25:28.251Z,101272.53
2023-02-06T15:28:18.978Z,101262.63
2023-02-06T15:30:53.367Z,101295.84
2023-02-06T15:33:29.220Z,101309.69
2023-02-06T15:36:03.070Z,101313.38
2023-02-06T15:38:34.580Z,101266.19
2023-02-06T15:41:08.941Z,101295.72
2023-02-06T15:43:38.176Z,101296.88
2023-02-06T15:46:07.235Z,101237.63
2023-02-06T15:48:41.473Z,101317.97
2023-02-06T15:51:40.035Z,101248.19
2023-02-06T15:54:28.201Z,101337.88
2023-02-06T15:57:17.640Z,101303.41
2023-02-06T15:59:46.329Z,101323.38
2023-02-06T16:02:26.914Z,101375.16
2023-02-06T16:04:55.730Z,101362.25
2023-02-06T16:07:32.591Z,101371.84
2023-02-06T16:10:08.763Z,101324.47
2023-02-06T16:12:41.936Z,101389.19
2023-02-06T16:15:40.130Z,101384.97
2023-02-06T16:18:34.018Z,101309.03
2023-02-06T16:21:31.316Z,101389.38
2023-02-06T16:24:17.862Z,101373.84
2023-02-06T16:26:52.529Z,101401.50
2023-02-06T16:29:32.118Z,101404.94
2023-02-06T16:32:12.277Z,101418.81
2023-02-06T16:34:46.183Z,101424.91
2023-02-06T16:37:28.537Z,101425.78
2023-02-06T16:39:58.078Z,101415.44
2023-02-06T16:42:35.148Z,101424.13
2023-02-06T16:45:26.790Z,101367.19
2023-02-06T16:47:56.242Z,101428.53
2023-02-06T16:50:25.396Z,101368.06
2023-02-06T16:53:03.683Z,101426.00
2023-02-06T16:55:32.597Z,101443.28
2023-02-06T16:58:02.674Z,101384.53
2023-02-06T17:00:34.079Z,101447.66
2023-02-06T17:03:03.665Z,101423.47
2023-02-06T17:05:33.559Z,101374.25
2023-02-06T17:08:04.236Z,101428.69
2023-02-06T17:10:33.213Z,101431.28
2023-02-06T17:13:01.905Z,101427.81
2023-02-06T17:15:31.148Z,101431.25
2023-02-06T17:17:59.820Z,101356.94
2023-02-06T17:20:37.958Z,101434.72
2023-02-06T17:23:07.178Z,101449.44
2023-02-06T17:25:36.212Z,101440.75
2023-02-06T17:28:08.243Z,101445.94
2023-02-06T17:30:38.333Z,101382.78
2023-02-06T17:33:07.809Z,101440.75
2023-02-06T17:35:40.216Z,101406.13
2023-02-06T17:38:10.761Z,101446.75
2023-02-06T17:40:42.701Z,101427.72
2023-02-06T17:43:11.477Z,101430.31
2023-02-06T17:45:41.072Z,101451.06
2023-02-06T17:48:09.914Z,101399.19
2023-02-06T17:50:40.908Z,101394.81
2023-02-06T17:53:14.301Z,101400.03
2023-02-06T17:55:42.672Z,101357.66
2023-02-06T17:58:12.028Z,101453.66
2023-02-06T18:00:41.017Z,101414.69
2023-02-06T18:03:10.033Z,101446.69
2023-02-06T18:05:39.434Z,101453.44
2023-02-06T18:08:08.168Z,101456.88
2023-02-06T18:10:36.786Z,101450.81
2023-02-06T18:13:05.170Z,101426.59
2023-02-06T18:15:34.912Z,101406.63
2023-02-06T18:18:05.237Z,101457.66
2023-02-06T18:20:36.048Z,101481.00
2023-02-06T18:23:04.623Z,101435.06
2023-02-06T18:25:32.911Z,101476.59
2023-02-06T18:28:01.718Z,101479.09
2023-02-06T18:30:30.307Z,101465.97
2023-02-06T18:33:02.122Z,101431.34
2023-02-06T18:35:30.542Z,101420.88
2023-02-06T18:37:59.248Z,101407.84
2023-02-06T18:40:27.914Z,101493.53
2023-02-06T18:42:56.567Z,101493.41
2023-02-06T18:45:34.636Z,101490.78
2023-02-06T18:48:09.230Z,101432.72
2023-02-06T18:50:42.904Z,101497.53
2023-02-06T18:53:11.409Z,101503.59
2023-02-06T18:55:40.904Z,101443.97
2023-02-06T18:58:12.615Z,101501.94
2023-02-06T19:00:43.236Z,101489.78
2023-02-06T19:03:17.595Z,101434.41
2023-02-06T19:05:46.614Z,101507.09
2023-02-06T19:08:23.479Z,101446.53
2023-02-06T19:10:52.225Z,101516.56
2023-02-06T19:13:23.577Z,101521.72
2023-02-06T19:15:52.412Z,101442.94
2023-02-06T19:18:35.947Z,101483.53
2023-02-06T19:21:11.221Z,101465.34
2023-02-06T19:23:40.978Z,101525.09
2023-02-06T19:26:14.458Z,101474.91
2023-02-06T19:28:44.351Z,101511.25
2023-02-06T19:31:15.687Z,101538.03
2023-02-06T19:33:44.389Z,101531.94
2023-02-06T19:36:16.234Z,101462.47
2023-02-06T19:38:45.144Z,101496.16
2023-02-06T19:41:24.276Z,101521.06
2023-02-06T19:43:55.367Z,101529.63
2023-02-06T19:46:27.051Z,101535.03
2023-02-06T19:48:56.237Z,101531.72
2023-02-06T19:51:32.735Z,101541.28
2023-02-06T19:54:02.295Z,101520.56
2023-02-06T19:56:40.852Z,101556.97
2023-02-06T19:59:28.432Z,101562.16
2023-02-06T20:02:03.200Z,101557.88
2023-02-06T20:04:37.115Z,101569.91
2023-02-06T20:07:08.325Z,101569.78
2023-02-06T20:09:42.076Z,101572.28
2023-02-06T20:12:15.413Z,101575.59
2023-02-06T20:14:44.344Z,101584.22
2023-02-06T20:17:13.740Z,101570.41
2023-02-06T20:19:42.656Z,101400.41
2023-02-06T20:22:11.276Z,101588.38
2023-02-06T20:24:40.426Z,101590.19
2023-02-06T20:27:10.114Z,101546.72
2023-02-06T20:29:43.198Z,101599.56
2023-02-06T20:32:12.413Z,101541.44
2023-02-06T20:34:41.138Z,101595.19
2023-02-06T20:37:09.963Z,101566.63
2023-02-06T20:39:38.926Z,101589.91
2023-02-06T20:42:07.596Z,101596.00
2023-02-06T20:44:37.166Z,101599.59
2023-02-06T20:47:06.426Z,101590.81
2023-02-06T20:49:36.016Z,101596.84
2023-02-06T20:52:04.688Z,101591.53
2023-02-06T20:54:34.287Z,101597.53
2023-02-06T20:57:03.660Z,101598.41
2023-02-06T20:59:32.492Z,101615.66
2023-02-06T21:02:01.383Z,101573.03
2023-02-06T21:04:34.266Z,101619.03
2023-02-06T21:07:03.211Z,101565.31
2023-02-06T21:09:32.168Z,101611.28
2023-02-06T21:12:01.399Z,101601.66
2023-02-06T21:14:34.919Z,101555.78
2023-02-06T21:17:04.284Z,101567.22
2023-02-06T21:19:36.176Z,101564.34
2023-02-06T21:22:05.532Z,101582.53
2023-02-06T21:24:36.964Z,101559.28
2023-02-06T21:27:09.136Z,101588.00
2023-02-06T21:29:42.757Z,101586.34
2023-02-06T21:32:14.459Z,101626.44
2023-02-06T21:34:44.033Z,101589.16
2023-02-06T21:37:12.798Z,101625.69
2023-02-06T21:39:42.171Z,101623.16
2023-02-06T21:42:12.036Z,101616.31
2023-02-06T21:44:41.157Z,101632.06
2023-02-06T21:47:10.418Z,101487.31
2023-02-06T21:49:39.035Z,101613.09
2023-02-06T21:52:07.545Z,101549.88
2023-02-06T21:54:36.097Z,101631.34
2023-02-06T21:57:05.069Z,101629.59
2023-02-06T21:59:34.877Z,101619.94
2023-02-06T22:02:03.469Z,101629.34
2023-02-06T22:04:32.032Z,101640.50
2023-02-06T22:07:01.159Z,101642.19
2023-02-06T22:09:29.651Z,101582.28
2023-02-06T22:11:58.566Z,101631.72
2023-02-06T22:14:27.240Z,101636.94
2023-02-06T22:16:56.376Z,101631.78
2023-02-06T22:19:25.741Z,101622.22
2023-02-06T22:21:54.141Z,101622.22
2023-02-06T22:24:23.972Z,101624.75
2023-02-06T22:26:52.529Z,101624.69
2023-02-06T22:29:21.339Z,101549.25
2023-02-06T22:31:50.026Z,101552.63
2023-02-06T22:34:21.250Z,101546.59
2023-02-06T22:36:54.184Z,101597.00
2023-02-06T22:39:24.615Z,101608.25
2023-02-06T22:41:54.153Z,101601.44
2023-02-06T22:44:22.799Z,101573.78
2023-02-06T22:46:53.723Z,101532.41
2023-02-06T22:49:24.569Z,101586.94
2023-02-06T22:51:52.983Z,101526.19
2023-02-06T22:54:21.420Z,101578.88
2023-02-06T22:56:50.367Z,101573.63
2023-02-06T22:59:25.271Z,101566.03
2023-02-06T23:01:58.289Z,101578.03
2023-02-06T23:04:30.959Z,101522.63
2023-02-06T23:06:59.913Z,101555.69
2023-02-06T23:09:38.774Z,101559.94
2023-02-06T23:12:10.211Z,101555.69
2023-02-06T23:14:39.460Z,101555.75
2023-02-06T23:17:08.917Z,101561.88
2023-02-06T23:19:38.829Z,101569.72
2023-02-06T23:22:08.538Z,101571.53
2023-02-06T23:24:37.893Z,101565.56
2023-02-06T23:27:07.389Z,101561.28
2023-02-06T23:29:37.067Z,101531.84
2023-02-06T23:32:06.565Z,101497.94
2023-02-06T23:34:35.065Z,101554.22
2023-02-06T23:37:04.118Z,101559.47
2023-02-06T23:39:32.704Z,101547.34
2023-02-06T23:42:01.225Z,101484.00
2023-02-06T23:44:30.390Z,101560.22
2023-02-06T23:46:59.218Z,101551.66
2023-02-06T23:49:28.176Z,101542.13
2023-02-06T23:51:57.614Z,101537.00
2023-02-06T23:54:26.596Z,101530.94
2023-02-06T23:56:55.911Z,101538.78
2023-02-06T23:59:24.635Z,101540.59
